createdAt,value
2018-08-11T00:00:03.122Z,1.20
2018-08-11T00:05:07.163Z,1.37
2018-08-11T00:10:11.152Z,1.37
2018-08-11T00:15:16.528Z,1.93
2018-08-11T00:20:23.700Z,1.80
2018-08-11T00:25:27.821Z,1.70
2018-08-11T00:30:31.963Z,1.73
2018-08-11T00:35:35.942Z,1.67
2018-08-11T00:40:40.128Z,1.93
2018-08-11T00:45:44.114Z,1.67
2018-08-11T00:50:49.321Z,1.40
2018-08-11T00:55:53.314Z,1.57
2018-08-11T01:00:57.288Z,1.17
2018-08-11T01:06:01.275Z,1.00
2018-08-11T01:11:05.272Z,1.10
2018-08-11T01:16:09.271Z,1.07
2018-08-11T01:21:13.255Z,0.90
2018-08-11T01:26:17.298Z,1.00
2018-08-11T01:31:21.857Z,0.80
2018-08-11T01:36:25.894Z,0.90
2018-08-11T01:41:30.147Z,0.77
2018-08-11T01:46:34.107Z,0.73
2018-08-11T01:51:38.094Z,0.70
2018-08-11T01:56:42.095Z,0.70
2018-08-11T02:01:46.079Z,0.90
2018-08-11T02:06:50.071Z,0.80
2018-08-11T02:11:54.203Z,0.70
2018-08-11T02:16:58.210Z,0.60
2018-08-11T02:22:02.187Z,0.70
2018-08-11T02:27:06.761Z,0.73
2018-08-11T02:32:10.828Z,0.80
2018-08-11T02:37:14.860Z,1.10
2018-08-11T02:42:18.858Z,1.10
2018-08-11T02:47:23.111Z,1.10
2018-08-11T02:52:27.107Z,1.73
2018-08-11T02:57:31.084Z,1.47
2018-08-11T03:02:35.354Z,1.33
2018-08-11T03:07:39.312Z,1.33
2018-08-11T03:12:43.308Z,1.23
2018-08-11T03:17:47.303Z,1.50
2018-08-11T03:22:51.297Z,1.27
2018-08-11T03:27:55.303Z,1.20
2018-08-11T03:32:59.315Z,1.30
2018-08-11T03:38:03.351Z,1.20
2018-08-11T03:43:07.355Z,1.20
2018-08-11T03:48:11.355Z,1.40
2018-08-11T03:53:15.405Z,1.57
2018-08-11T03:58:19.396Z,1.23
2018-08-11T04:03:23.339Z,1.30
2018-08-11T04:08:27.357Z,2.00
2018-08-11T04:13:31.354Z,1.40
2018-08-11T04:18:35.384Z,1.83
2018-08-11T04:23:39.366Z,1.30
2018-08-11T04:28:43.335Z,2.03
2018-08-11T04:33:47.436Z,1.90
2018-08-11T04:38:51.473Z,1.70
2018-08-11T04:43:55.481Z,2.30
2018-08-11T04:48:59.496Z,1.83
2018-08-11T04:54:03.499Z,2.23
2018-08-11T04:59:07.507Z,1.90
2018-08-11T05:04:11.510Z,1.87
2018-08-11T05:09:15.490Z,1.50
2018-08-11T05:14:19.486Z,1.60
2018-08-11T05:19:23.467Z,2.23
2018-08-11T05:24:27.452Z,1.60
2018-08-11T05:29:31.448Z,2.37
2018-08-11T05:34:35.466Z,2.50
2018-08-11T05:39:39.428Z,2.80
2018-08-11T05:44:43.411Z,3.00
2018-08-11T05:49:47.395Z,2.90
2018-08-11T05:54:51.401Z,2.33
2018-08-11T05:59:55.378Z,1.90
2018-08-11T06:04:59.348Z,3.20
2018-08-11T06:10:03.465Z,2.70
2018-08-11T06:15:08.041Z,3.10
2018-08-11T06:20:12.003Z,2.07
2018-08-11T06:25:16.003Z,2.00
2018-08-11T06:30:20.002Z,2.20
2018-08-11T06:35:24.824Z,2.80
2018-08-11T06:40:28.811Z,2.70
2018-08-11T06:45:32.763Z,2.63
2018-08-11T06:50:36.755Z,1.90
2018-08-11T06:55:41.418Z,1.70
2018-08-11T07:00:45.335Z,1.77
2018-08-11T07:05:49.348Z,2.83
2018-08-11T07:10:53.334Z,2.00
2018-08-11T07:15:57.344Z,1.70
2018-08-11T07:21:01.361Z,2.13
2018-08-11T07:26:05.331Z,2.10
2018-08-11T07:31:09.324Z,1.70
2018-08-11T07:36:13.392Z,1.87
2018-08-11T07:41:17.393Z,1.90
2018-08-11T07:46:21.812Z,1.97
2018-08-11T07:51:25.844Z,1.57
2018-08-11T07:56:29.835Z,1.40
2018-08-11T08:01:33.820Z,1.50
2018-08-11T08:06:37.860Z,2.00
2018-08-11T08:11:42.371Z,1.57
2018-08-11T08:16:46.405Z,1.60
2018-08-11T08:21:50.395Z,1.83
2018-08-11T08:26:54.471Z,1.40
2018-08-11T08:31:58.428Z,1.20
2018-08-11T08:37:02.461Z,1.67
2018-08-11T08:42:06.463Z,1.63
2018-08-11T08:47:11.232Z,1.53
2018-08-11T08:52:15.224Z,1.60
2018-08-11T08:57:19.204Z,1.50
2018-08-11T09:02:23.320Z,1.40
2018-08-11T09:07:27.327Z,2.13
2018-08-11T09:12:31.369Z,1.50
2018-08-11T09:17:35.386Z,1.47
2018-08-11T09:22:40.207Z,1.50
2018-08-11T09:27:44.228Z,1.63
2018-08-11T09:32:48.248Z,1.47
2018-08-11T09:37:52.277Z,1.30
2018-08-11T09:42:56.294Z,1.30
2018-08-11T09:48:00.616Z,1.60
2018-08-11T09:53:04.770Z,1.13
2018-08-11T09:58:08.927Z,1.67
2018-08-11T10:03:12.943Z,1.30
2018-08-11T10:08:17.008Z,1.20
2018-08-11T10:13:20.986Z,1.53
2018-08-11T10:18:25.028Z,1.37
2018-08-11T10:23:28.997Z,1.20
2018-08-11T10:28:32.979Z,1.37
2018-08-11T10:33:36.961Z,1.17
2018-08-11T10:38:41.266Z,1.50
2018-08-11T10:43:45.293Z,1.17
2018-08-11T10:48:49.249Z,1.53
2018-08-11T10:53:53.326Z,1.00
2018-08-11T10:58:57.344Z,1.60
2018-08-11T11:04:01.308Z,1.20
2018-08-11T11:09:07.863Z,1.20
2018-08-11T11:14:11.895Z,1.33
2018-08-11T11:19:15.807Z,1.20
2018-08-11T11:24:19.826Z,1.30
2018-08-11T11:29:23.843Z,1.23
2018-08-11T11:34:27.837Z,1.13
2018-08-11T11:39:32.665Z,1.00
2018-08-11T11:44:36.653Z,1.00
2018-08-11T11:49:40.727Z,1.17
2018-08-11T11:54:44.719Z,1.10
2018-08-11T11:59:48.691Z,1.00
2018-08-11T12:04:52.667Z,0.80
2018-08-11T12:09:56.643Z,1.20
2018-08-11T12:15:00.611Z,1.17
2018-08-11T12:20:04.998Z,1.00
2018-08-11T12:25:09.298Z,1.17
2018-08-11T12:30:13.279Z,0.90
2018-08-11T12:35:17.291Z,1.23
2018-08-11T12:40:21.494Z,1.20
2018-08-11T12:45:25.478Z,1.10
2018-08-11T12:50:29.499Z,1.37
2018-08-11T12:55:33.491Z,1.70
2018-08-11T13:00:37.479Z,1.17
2018-08-11T13:05:41.475Z,1.53
2018-08-11T13:10:45.456Z,1.20
2018-08-11T13:15:49.498Z,1.10
2018-08-11T13:20:53.541Z,1.37
2018-08-11T13:25:57.906Z,1.13
2018-08-11T13:31:01.901Z,1.27
2018-08-11T13:36:05.880Z,1.70
2018-08-11T13:41:09.915Z,1.70
2018-08-11T13:46:13.918Z,1.67
2018-08-11T13:51:17.891Z,1.77
2018-08-11T13:56:21.875Z,1.30
2018-08-11T14:01:25.930Z,1.10
2018-08-11T14:06:29.878Z,1.20
2018-08-11T14:11:33.879Z,1.67
2018-08-11T14:16:37.854Z,1.60
2018-08-11T14:21:41.823Z,1.40
2018-08-11T14:26:45.839Z,1.40
2018-08-11T14:31:49.972Z,1.40
2018-08-11T14:36:53.991Z,1.17
2018-08-11T14:41:58.018Z,1.30
2018-08-11T14:47:02.016Z,1.40
2018-08-11T14:52:06.092Z,1.70
2018-08-11T14:57:10.088Z,1.10
2018-08-11T15:02:14.108Z,1.50
2018-08-11T15:07:18.219Z,1.20
2018-08-11T15:12:22.212Z,1.47
2018-08-11T15:17:27.107Z,1.27
2018-08-11T15:22:31.862Z,1.70
2018-08-11T15:27:35.899Z,1.50
2018-08-11T15:32:39.876Z,1.20
2018-08-11T15:37:44.008Z,1.23
2018-08-11T15:42:48.105Z,1.20
2018-08-11T15:47:52.098Z,1.37
2018-08-11T15:52:56.136Z,1.80
2018-08-11T15:58:00.142Z,1.30
2018-08-11T16:03:04.190Z,1.50
2018-08-11T16:08:08.165Z,1.50
2018-08-11T16:14:15.271Z,1.20
2018-08-11T16:19:19.243Z,1.53
2018-08-11T16:24:23.284Z,1.47
2018-08-11T16:29:27.679Z,1.60
2018-08-11T16:34:31.599Z,1.80
2018-08-11T16:39:35.563Z,1.20
2018-08-11T16:44:39.579Z,1.10
2018-08-11T16:49:43.575Z,1.40
2018-08-11T16:54:47.567Z,1.43
2018-08-11T16:59:51.606Z,1.57
2018-08-11T17:04:55.736Z,1.60
2018-08-11T17:11:24.167Z,1.77
2018-08-11T17:16:28.159Z,1.67
2018-08-11T17:21:32.111Z,1.30
2018-08-11T17:26:36.115Z,1.80
2018-08-11T17:31:40.115Z,1.70
2018-08-11T17:36:44.110Z,1.70
2018-08-11T17:41:48.179Z,1.50
2018-08-11T17:46:52.607Z,1.60
2018-08-11T17:51:57.532Z,1.70
2018-08-11T17:57:01.494Z,1.70
2018-08-11T18:02:06.056Z,1.43
2018-08-11T18:07:10.137Z,2.07
2018-08-11T18:12:14.091Z,1.60
2018-08-11T18:17:18.126Z,1.87
2018-08-11T18:22:22.120Z,1.43
2018-08-11T18:27:26.148Z,1.53
2018-08-11T18:32:30.291Z,1.90
2018-08-11T18:37:34.279Z,1.57
2018-08-11T18:42:38.296Z,1.53
2018-08-11T18:47:42.384Z,2.20
2018-08-11T18:52:48.726Z,1.87
2018-08-11T18:57:52.759Z,1.77
2018-08-11T19:02:56.791Z,1.90
2018-08-11T19:08:00.995Z,1.50
2018-08-11T19:13:04.995Z,1.57
2018-08-11T19:18:09.013Z,1.73
2018-08-11T19:23:13.028Z,1.60
2018-08-11T19:28:17.094Z,1.87
2018-08-11T19:33:21.104Z,1.50
2018-08-11T19:38:25.939Z,1.70
2018-08-11T19:43:31.156Z,1.40
2018-08-11T19:48:35.199Z,1.60
2018-08-11T19:53:39.259Z,1.53
2018-08-11T19:58:43.285Z,1.50
2018-08-11T20:03:47.288Z,1.63
2018-08-11T20:08:51.274Z,1.83
2018-08-11T20:13:55.250Z,1.70
2018-08-11T20:18:59.266Z,1.70
2018-08-11T20:24:03.327Z,1.77
2018-08-11T20:29:07.323Z,1.70
2018-08-11T20:34:11.334Z,1.90
2018-08-11T20:39:15.356Z,1.73
2018-08-11T20:44:19.343Z,1.40
2018-08-11T20:49:23.394Z,1.67
2018-08-11T20:54:27.498Z,1.63
2018-08-11T20:59:31.535Z,1.60
2018-08-11T21:04:35.571Z,1.63
2018-08-11T21:09:39.572Z,1.50
2018-08-11T21:14:43.565Z,1.50
2018-08-11T21:19:48.348Z,1.40
2018-08-11T21:24:52.784Z,1.70
2018-08-11T21:29:56.779Z,1.20
2018-08-11T21:35:00.772Z,1.60
2018-08-11T21:40:07.241Z,1.40
2018-08-11T21:45:11.603Z,1.70
2018-08-11T21:50:15.680Z,1.60
2018-08-11T21:55:19.676Z,1.80
2018-08-11T22:00:30.548Z,1.77
2018-08-11T22:05:34.532Z,1.37
2018-08-11T22:10:38.507Z,1.60
2018-08-11T22:15:42.523Z,1.60
2018-08-11T22:20:46.631Z,1.90
2018-08-11T22:25:50.655Z,1.90
2018-08-11T22:30:54.678Z,1.60
2018-08-11T22:35:58.744Z,1.87
2018-08-11T22:41:02.819Z,1.80
2018-08-11T22:46:07.230Z,1.57
2018-08-11T22:51:11.321Z,1.60
2018-08-11T22:56:15.428Z,1.80
2018-08-11T23:01:19.428Z,2.00
2018-08-11T23:06:23.438Z,1.80
2018-08-11T23:11:27.426Z,1.80
2018-08-11T23:16:31.455Z,1.60
2018-08-11T23:21:35.449Z,1.90
2018-08-11T23:26:39.440Z,2.03
2018-08-11T23:31:43.403Z,2.03
2018-08-11T23:36:47.532Z,1.90
2018-08-11T23:41:51.495Z,1.50
2018-08-11T23:46:55.466Z,1.73
2018-08-11T23:51:59.491Z,2.03
2018-08-11T23:57:03.859Z,2.07
